Time;durP1;ratioP1;P1;durP2;ratioP2;P2;SDS_P1;SDS_P2;PMS_P1;PMS_P2;Temp;Humidity;BMP_temperature;BMP_pressure;BME280_temperature;BME280_humidity;BME280_pressure;Samples;Min_cycle;Max_cycle;Signal;HPM_P1;HPM_P2
2021/12/21 00:02:22;;;;;;;44.43;20.83;;;2.20;99.90;;;;;;5075137;28;20222;-74
2021/12/21 00:04:47;;;;;;;49.97;22.67;;;2.20;99.90;;;;;;5073801;28;20172;-74
2021/12/21 00:07:13;;;;;;;51.27;23.03;;;2.20;99.90;;;;;;5074507;28;20644;-74
2021/12/21 00:09:39;;;;;;;45.10;22.87;;;2.20;99.90;;;;;;5075131;28;20172;-74
2021/12/21 00:12:05;;;;;;;44.27;22.03;;;2.20;99.90;;;;;;5073789;28;20177;-74
2021/12/21 00:14:59;;;;;;;54.67;22.97;;;2.30;99.90;;;;;;5074977;28;20634;-74
2021/12/21 00:17:32;;;;;;;52.33;22.80;;;2.20;99.90;;;;;;5074185;28;20184;-74
2021/12/21 00:23:08;;;;;;;51.77;23.63;;;2.10;99.90;;;;;;5074695;28;20254;-75
2021/12/21 00:25:19;;;;;;;67.17;25.40;;;2.00;99.90;;;;;;5074459;28;20301;-75
2021/12/21 00:27:47;;;;;;;56.80;25.03;;;2.00;99.90;;;;;;5074583;28;20171;-74
2021/12/21 00:30:14;;;;;;;52.73;24.53;;;2.00;99.90;;;;;;5074588;28;20298;-75
2021/12/21 00:32:39;;;;;;;45.60;23.57;;;2.00;99.90;;;;;;5074386;28;20259;-73
2021/12/21 00:35:06;;;;;;;49.17;25.33;;;2.00;99.90;;;;;;5073679;28;20234;-74
2021/12/21 00:37:32;;;;;;;48.20;24.87;;;1.90;99.90;;;;;;5073697;28;20545;-74
2021/12/21 00:39:58;;;;;;;57.17;24.20;;;1.80;99.90;;;;;;5074505;28;20646;-74
2021/12/21 00:42:23;;;;;;;51.27;24.23;;;1.80;99.90;;;;;;5074293;28;20212;-74
2021/12/21 00:44:49;;;;;;;50.03;22.63;;;1.80;99.90;;;;;;5073023;28;20237;-74
2021/12/21 00:47:16;;;;;;;52.17;24.27;;;1.80;99.90;;;;;;5074287;28;20179;-74
2021/12/21 00:49:48;;;;;;;55.50;24.20;;;1.70;99.90;;;;;;5074079;28;20175;-74
2021/12/21 00:52:14;;;;;;;54.67;23.97;;;1.70;99.90;;;;;;5074018;28;20175;-74
2021/12/21 00:54:41;;;;;;;48.67;24.10;;;1.70;99.90;;;;;;5074091;28;20179;-74
2021/12/21 00:57:08;;;;;;;45.83;24.47;;;1.70;99.90;;;;;;5073739;28;20172;-74
2021/12/21 00:59:34;;;;;;;53.00;24.33;;;1.70;99.90;;;;;;5073947;28;20195;-74
2021/12/21 01:02:00;;;;;;;49.60;24.33;;;1.70;99.90;;;;;;5072709;28;20212;-74
2021/12/21 01:04:34;;;;;;;51.67;25.27;;;1.70;99.90;;;;;;5073598;28;20200;-74
2021/12/21 01:07:19;;;;;;;60.43;24.97;;;1.70;99.90;;;;;;5073701;28;20258;-75
2021/12/21 01:10:22;;;;;;;59.93;25.67;;;1.70;99.90;;;;;;5073706;28;20643;-74
2021/12/21 01:15:44;;;;;;;55.60;25.57;;;1.70;99.90;;;;;;5074005;28;20175;-75
2021/12/21 01:18:20;;;;;;;56.60;24.97;;;1.60;99.90;;;;;;5073756;28;20182;-73
2021/12/21 01:26:18;;;;;;;50.47;26.00;;;1.60;99.90;;;;;;5073428;28;20288;-74
2021/12/21 01:29:35;;;;;;;54.27;24.57;;;1.60;99.90;;;;;;5072930;28;20206;-74
2021/12/21 01:31:49;;;;;;;55.07;25.40;;;1.60;99.90;;;;;;5064998;28;20192;-74
2021/12/21 01:36:52;;;;;;;53.00;25.23;;;1.60;99.90;;;;;;5073221;28;20265;-75
2021/12/21 01:42:01;;;;;;;52.97;27.90;;;1.50;99.90;;;;;;5073251;28;20275;-74
2021/12/21 01:49:32;;;;;;;54.10;26.93;;;1.50;99.90;;;;;;5072956;28;20206;-75
2021/12/21 01:49:56;;;;;;;53.07;26.77;;;1.40;99.90;;;;;;5072917;28;20586;-75
2021/12/21 01:52:27;;;;;;;56.13;27.63;;;1.40;99.90;;;;;;5073391;28;20175;-74
2021/12/21 01:54:54;;;;;;;61.40;27.17;;;1.30;99.90;;;;;;5073163;28;20163;-75
2021/12/21 01:57:20;;;;;;;52.13;27.47;;;1.30;99.90;;;;;;5073392;28;20233;-75
2021/12/21 01:59:47;;;;;;;61.33;28.07;;;1.30;99.90;;;;;;5073010;28;20192;-75
2021/12/21 02:02:15;;;;;;;50.10;27.53;;;1.40;99.90;;;;;;5071650;28;20212;-73
2021/12/21 02:04:41;;;;;;;55.43;28.77;;;1.30;99.90;;;;;;5072614;28;20168;-75
2021/12/21 02:07:08;;;;;;;49.57;27.63;;;1.30;99.90;;;;;;5073016;28;20193;-74
2021/12/21 02:09:37;;;;;;;60.50;28.70;;;1.20;99.90;;;;;;5072922;28;20183;-74
2021/12/21 02:12:11;;;;;;;59.73;26.30;;;1.20;99.90;;;;;;5073059;28;20182;-74
2021/12/21 02:14:38;;;;;;;53.10;26.53;;;1.20;99.90;;;;;;5072990;28;20820;-75
2021/12/21 02:20:56;;;;;;;65.83;28.83;;;1.20;99.90;;;;;;5072944;28;20543;-74
2021/12/21 02:23:06;;;;;;;56.73;27.30;;;1.20;99.90;;;;;;5062042;28;20250;-74
2021/12/21 02:30:45;;;;;;;49.00;27.40;;;1.10;99.90;;;;;;5072570;28;20254;-74
2021/12/21 02:33:13;;;;;;;49.73;26.00;;;1.00;99.90;;;;;;5072310;28;20166;-75
2021/12/21 02:35:38;;;;;;;54.30;27.23;;;0.90;99.90;;;;;;5072859;28;20178;-75
2021/12/21 02:38:04;;;;;;;57.83;27.97;;;0.90;99.90;;;;;;5072692;28;20171;-74
2021/12/21 02:40:30;;;;;;;55.90;27.17;;;0.80;99.90;;;;;;5072708;28;20624;-75
2021/12/21 02:42:56;;;;;;;51.03;26.63;;;0.80;99.90;;;;;;5072623;28;20212;-74
2021/12/21 02:45:22;;;;;;;56.97;27.40;;;0.70;99.90;;;;;;5072522;28;20561;-74
2021/12/21 02:47:47;;;;;;;54.53;27.97;;;0.70;99.90;;;;;;5072113;28;20172;-74
2021/12/21 02:50:13;;;;;;;60.30;28.17;;;0.70;99.90;;;;;;5072560;28;20167;-73
2021/12/21 02:52:39;;;;;;;54.43;27.93;;;0.70;99.90;;;;;;5072899;28;20182;-74
2021/12/21 02:55:06;;;;;;;57.70;28.13;;;0.70;99.90;;;;;;5072588;28;20165;-74
2021/12/21 02:57:31;;;;;;;55.60;28.30;;;0.70;99.90;;;;;;5074504;28;20206;-75
2021/12/21 02:59:57;;;;;;;55.87;27.67;;;0.70;99.90;;;;;;5075949;28;20579;-74
2021/12/21 03:02:23;;;;;;;58.10;27.90;;;0.60;99.90;;;;;;5075816;28;20246;-74
2021/12/21 03:04:50;;;;;;;53.03;25.93;;;0.70;99.90;;;;;;5076411;28;20179;-75
2021/12/21 03:10:00;;;;;;;51.00;25.37;;;0.60;99.90;;;;;;5076452;28;20168;-74
2021/12/21 03:15:11;;;;;;;54.60;26.10;;;0.70;99.90;;;;;;5076272;28;20680;-74
2021/12/21 03:17:37;;;;;;;51.70;28.03;;;0.70;99.90;;;;;;5075759;28;20186;-73
2021/12/21 03:20:03;;;;;;;56.87;28.17;;;0.70;99.90;;;;;;5075949;28;20197;-73
2021/12/21 03:22:28;;;;;;;54.77;29.20;;;0.60;99.90;;;;;;5075882;28;20215;-73
2021/12/21 03:24:54;;;;;;;56.93;27.43;;;0.60;99.90;;;;;;5075639;28;20218;-74
2021/12/21 03:27:20;;;;;;;50.80;27.50;;;0.50;99.90;;;;;;5075633;28;20180;-75
2021/12/21 03:29:45;;;;;;;51.57;26.60;;;0.50;99.90;;;;;;5074650;28;20174;-74
2021/12/21 03:32:11;;;;;;;58.77;29.63;;;0.40;99.90;;;;;;5075432;28;20193;-74
2021/12/21 03:34:36;;;;;;;56.57;27.73;;;0.40;99.90;;;;;;5075673;28;20200;-74
2021/12/21 03:37:05;;;;;;;56.83;27.63;;;0.40;99.90;;;;;;5075616;28;20191;-74
2021/12/21 03:39:30;;;;;;;56.80;27.80;;;0.40;99.90;;;;;;5075600;28;20168;-74
2021/12/21 03:41:58;;;;;;;55.17;28.67;;;0.40;99.90;;;;;;5075264;28;20651;-74
2021/12/21 03:44:25;;;;;;;50.70;27.23;;;0.40;99.90;;;;;;5075894;28;20226;-73
2021/12/21 03:46:54;;;;;;;56.87;27.93;;;0.40;99.90;;;;;;5075285;28;20164;-74
2021/12/21 03:51:59;;;;;;;64.73;27.83;;;0.40;99.90;;;;;;5075571;28;20207;-74
2021/12/21 03:54:24;;;;;;;58.30;28.03;;;0.30;99.90;;;;;;5075239;28;20179;-74
2021/12/21 03:56:51;;;;;;;54.13;27.53;;;0.30;99.90;;;;;;5075012;28;20528;-74
2021/12/21 03:59:18;;;;;;;60.30;28.17;;;0.30;99.90;;;;;;5075027;28;20212;-74
2021/12/21 04:01:44;;;;;;;56.20;27.60;;;0.30;99.90;;;;;;5075295;28;20252;-74
2021/12/21 04:04:10;;;;;;;55.43;27.13;;;0.20;99.90;;;;;;5075055;28;20664;-73
2021/12/21 04:06:37;;;;;;;50.83;26.33;;;0.20;99.90;;;;;;5074923;28;20173;-74
2021/12/21 04:09:07;;;;;;;54.67;27.50;;;0.20;99.90;;;;;;5075095;28;20237;-73
2021/12/21 04:11:33;;;;;;;50.37;27.60;;;0.20;99.90;;;;;;5074912;28;20253;-73
2021/12/21 04:14:00;;;;;;;51.60;27.07;;;0.20;99.90;;;;;;5074500;28;20165;-73
2021/12/21 04:16:26;;;;;;;52.13;28.17;;;0.20;99.90;;;;;;5073518;28;20188;-73
2021/12/21 04:18:51;;;;;;;58.70;28.63;;;0.20;99.90;;;;;;5074716;28;20173;-73
2021/12/21 04:21:17;;;;;;;56.20;27.57;;;0.20;99.90;;;;;;5074345;28;20533;-73
2021/12/21 04:23:44;;;;;;;57.93;27.97;;;0.20;99.90;;;;;;5074622;28;20175;-74
2021/12/21 04:26:11;;;;;;;48.90;26.47;;;0.10;99.90;;;;;;5074406;28;20220;-73
2021/12/21 04:28:37;;;;;;;53.07;27.00;;;0.10;99.90;;;;;;5072881;28;20184;-73
2021/12/21 04:31:04;;;;;;;56.27;28.10;;;0.20;99.90;;;;;;5074659;28;20170;-73
2021/12/21 04:33:30;;;;;;;52.10;27.40;;;0.10;99.90;;;;;;5074268;28;20211;-73
2021/12/21 04:35:56;;;;;;;60.10;28.50;;;0.10;99.90;;;;;;5074237;28;20214;-74
2021/12/21 04:38:30;;;;;;;63.07;27.90;;;0.10;99.90;;;;;;5074612;28;20262;-74
2021/12/21 04:41:06;;;;;;;46.40;26.63;;;0.10;99.90;;;;;;5073987;28;20165;-73
2021/12/21 04:43:32;;;;;;;49.87;27.23;;;0.10;99.90;;;;;;5073809;28;20176;-74
2021/12/21 04:45:57;;;;;;;58.73;28.07;;;0.10;99.90;;;;;;5072895;28;20533;-74
2021/12/21 04:48:23;;;;;;;52.17;26.23;;;0.10;99.90;;;;;;5073792;28;20181;-74
2021/12/21 04:50:49;;;;;;;58.27;26.70;;;0.10;99.90;;;;;;5073054;28;20169;-74
2021/12/21 04:53:15;;;;;;;56.63;27.33;;;0.00;99.90;;;;;;5073983;28;20203;-73
2021/12/21 04:55:41;;;;;;;54.97;27.83;;;0.00;99.90;;;;;;5073555;28;20173;-74
2021/12/21 04:58:07;;;;;;;55.80;27.30;;;0.00;99.90;;;;;;5073059;28;20203;-74
2021/12/21 05:00:33;;;;;;;50.97;26.00;;;-0.10;99.90;;;;;;5073982;28;20770;-73
2021/12/21 05:02:59;;;;;;;58.10;28.37;;;-0.10;99.90;;;;;;5073752;28;20214;-74
2021/12/21 05:05:25;;;;;;;54.43;27.83;;;-0.10;99.90;;;;;;5073494;28;20531;-74
2021/12/21 05:08:04;;;;;;;49.53;25.90;;;-0.10;99.90;;;;;;5073553;28;20169;-74
2021/12/21 05:10:30;;;;;;;61.63;27.63;;;-0.10;99.90;;;;;;5072208;28;20174;-74
2021/12/21 05:12:56;;;;;;;52.70;26.77;;;-0.10;99.90;;;;;;5071225;28;20181;-74
2021/12/21 05:15:22;;;;;;;52.97;27.17;;;-0.10;99.90;;;;;;5073651;28;20180;-74
2021/12/21 05:17:47;;;;;;;54.87;27.77;;;-0.10;99.90;;;;;;5073601;28;20636;-75
2021/12/21 05:20:13;;;;;;;55.53;26.43;;;-0.10;99.90;;;;;;5072868;28;20521;-74
2021/12/21 05:22:38;;;;;;;51.47;26.67;;;-0.10;99.90;;;;;;5073128;28;20217;-74
2021/12/21 05:25:05;;;;;;;50.63;26.60;;;-0.10;99.90;;;;;;5072591;28;20227;-75
2021/12/21 05:27:30;;;;;;;51.23;25.40;;;-0.10;99.90;;;;;;5072855;28;20174;-74
2021/12/21 05:29:56;;;;;;;50.67;26.37;;;-0.10;99.90;;;;;;5072991;28;20173;-74
2021/12/21 05:32:22;;;;;;;51.83;25.60;;;-0.10;99.90;;;;;;5073317;28;20257;-75
2021/12/21 05:34:48;;;;;;;57.67;25.83;;;-0.20;99.90;;;;;;5073035;28;20248;-75
2021/12/21 05:37:13;;;;;;;44.77;25.27;;;-0.30;99.90;;;;;;5072744;28;20323;-74
2021/12/21 05:42:17;;;;;;;53.63;26.00;;;-0.30;99.90;;;;;;5072552;28;20204;-74
2021/12/21 05:44:42;;;;;;;50.67;27.03;;;-0.30;99.90;;;;;;5072705;28;20226;-74
2021/12/21 05:47:08;;;;;;;50.90;25.73;;;-0.30;99.90;;;;;;5071376;28;20182;-74
2021/12/21 05:49:34;;;;;;;56.00;26.23;;;-0.30;99.90;;;;;;5071356;28;20222;-74
2021/12/21 05:52:00;;;;;;;53.33;25.30;;;-0.30;99.90;;;;;;5072485;28;20219;-75
2021/12/21 05:54:26;;;;;;;62.23;25.37;;;-0.30;99.90;;;;;;5072254;28;20176;-74
2021/12/21 05:56:51;;;;;;;55.63;26.73;;;-0.30;99.90;;;;;;5072213;28;20184;-75
2021/12/21 05:59:17;;;;;;;51.57;25.33;;;-0.30;99.90;;;;;;5072585;28;20200;-74
2021/12/21 06:01:43;;;;;;;47.67;25.50;;;-0.30;99.90;;;;;;5071349;28;20204;-75
2021/12/21 06:04:08;;;;;;;52.10;25.87;;;-0.20;99.90;;;;;;5072762;28;20170;-74
2021/12/21 06:06:35;;;;;;;50.80;24.90;;;-0.20;99.90;;;;;;5072561;28;20178;-74
2021/12/21 06:09:05;;;;;;;45.67;24.30;;;-0.30;99.90;;;;;;5072062;28;20257;-74
2021/12/21 06:11:33;;;;;;;52.87;25.63;;;-0.30;99.90;;;;;;5071714;28;20187;-75
2021/12/21 06:14:14;;;;;;;47.27;25.37;;;-0.30;99.90;;;;;;5072171;28;20522;-74
2021/12/21 06:27:37;;;;;;;43.73;25.97;;;-0.30;99.90;;;;;;5072195;28;20177;-75
2021/12/21 06:30:03;;;;;;;51.93;24.47;;;-0.30;99.90;;;;;;5071852;28;20177;-74
2021/12/21 06:32:29;;;;;;;47.47;23.83;;;-0.30;99.90;;;;;;5073701;28;20251;-74
2021/12/21 06:34:55;;;;;;;44.07;23.93;;;-0.30;99.90;;;;;;5076135;28;20257;-75
2021/12/21 06:37:21;;;;;;;44.67;24.63;;;-0.30;99.90;;;;;;5075903;28;20176;-75
2021/12/21 06:39:46;;;;;;;59.73;25.20;;;-0.20;99.90;;;;;;5075866;28;20168;-75
2021/12/21 06:42:13;;;;;;;56.23;25.13;;;-0.20;99.90;;;;;;5076321;28;20259;-75
2021/12/21 06:44:42;;;;;;;51.30;25.20;;;-0.20;99.90;;;;;;5076126;28;20176;-76
2021/12/21 06:52:20;;;;;;;53.70;25.50;;;-0.30;99.90;;;;;;5075237;28;20176;-75
2021/12/21 06:54:45;;;;;;;46.83;24.20;;;-0.30;99.90;;;;;;5074023;28;20173;-75
2021/12/21 06:57:11;;;;;;;43.80;23.23;;;-0.40;99.90;;;;;;5075164;28;20251;-75
2021/12/21 06:59:37;;;;;;;61.67;25.23;;;-0.50;99.90;;;;;;5075175;28;20544;-75
2021/12/21 07:02:03;;;;;;;49.67;24.63;;;-0.50;99.90;;;;;;5075533;28;20331;-74
2021/12/21 07:04:29;;;;;;;51.63;24.80;;;-0.40;99.90;;;;;;5075053;28;20306;-75
2021/12/21 07:06:57;;;;;;;50.50;24.73;;;-0.40;99.90;;;;;;5074150;28;20566;-74
2021/12/21 07:09:32;;;;;;;44.93;22.37;;;-0.40;99.90;;;;;;5074237;28;20564;-74
2021/12/21 07:12:21;;;;;;;44.73;23.53;;;-0.40;99.90;;;;;;5074965;28;20172;-75
2021/12/21 07:19:59;;;;;;;45.40;21.03;;;-0.20;99.90;;;;;;5075262;28;20536;-74
2021/12/21 07:22:25;;;;;;;49.70;24.17;;;-0.20;99.90;;;;;;5074610;28;20307;-74
2021/12/21 07:24:51;;;;;;;46.20;22.13;;;-0.10;99.90;;;;;;5074493;28;20224;-75
2021/12/21 07:27:16;;;;;;;51.43;24.60;;;-0.20;99.90;;;;;;5074669;28;20204;-75
2021/12/21 07:29:42;;;;;;;51.17;23.73;;;-0.20;99.90;;;;;;5074884;28;20179;-74
2021/12/21 07:32:08;;;;;;;51.80;23.77;;;-0.20;99.90;;;;;;5074848;28;20178;-75
2021/12/21 07:34:33;;;;;;;61.10;25.77;;;-0.30;99.90;;;;;;5074743;28;20173;-74
2021/12/21 07:36:59;;;;;;;49.13;23.87;;;-0.30;99.90;;;;;;5074071;28;20184;-75
2021/12/21 07:39:25;;;;;;;54.20;24.27;;;-0.30;99.90;;;;;;5074310;28;20261;-73
2021/12/21 07:41:51;;;;;;;43.67;23.20;;;-0.30;99.90;;;;;;5074269;28;20197;-75
2021/12/21 07:44:16;;;;;;;47.83;24.10;;;-0.40;99.90;;;;;;5074242;28;20210;-74
2021/12/21 07:46:42;;;;;;;51.27;23.17;;;-0.40;99.90;;;;;;5074098;28;20173;-74
2021/12/21 07:49:08;;;;;;;45.30;24.17;;;-0.40;99.90;;;;;;5074064;28;20354;-75
2021/12/21 07:51:34;;;;;;;44.13;23.47;;;-0.50;99.90;;;;;;5073884;28;20593;-74
2021/12/21 07:54:00;;;;;;;50.43;23.37;;;-0.50;99.90;;;;;;5073436;28;20231;-74
2021/12/21 07:56:26;;;;;;;52.60;23.90;;;-0.50;99.90;;;;;;5072464;28;20299;-74
2021/12/21 07:58:52;;;;;;;53.60;23.63;;;-0.40;99.90;;;;;;5074283;28;20189;-75
2021/12/21 08:01:18;;;;;;;46.73;23.63;;;-0.40;99.90;;;;;;5074026;28;20214;-75
2021/12/21 08:03:44;;;;;;;47.73;23.90;;;-0.40;99.90;;;;;;5073809;28;20624;-74
2021/12/21 08:06:12;;;;;;;53.17;23.23;;;-0.30;99.90;;;;;;5073648;28;20225;-75
2021/12/21 08:08:41;;;;;;;43.77;22.97;;;-0.30;99.90;;;;;;5073709;28;20184;-74
2021/12/21 08:13:51;;;;;;;43.97;23.23;;;-0.20;99.90;;;;;;5073955;28;20622;-74
2021/12/21 08:16:17;;;;;;;47.27;23.73;;;-0.20;99.90;;;;;;5072713;28;20168;-75
2021/12/21 08:18:42;;;;;;;39.80;22.00;;;-0.20;99.90;;;;;;5073872;28;20193;-74
2021/12/21 08:21:08;;;;;;;50.83;22.73;;;-0.20;99.90;;;;;;5073426;28;20667;-74
2021/12/21 08:23:34;;;;;;;44.83;22.80;;;-0.20;99.90;;;;;;5074427;28;20647;-74
2021/12/21 08:26:00;;;;;;;38.60;19.50;;;-0.10;99.90;;;;;;5074068;28;20279;-75
2021/12/21 08:28:26;;;;;;;45.17;21.50;;;0.00;99.90;;;;;;5073447;28;20178;-74
2021/12/21 08:30:52;;;;;;;38.13;21.17;;;0.00;99.90;;;;;;5073927;28;20168;-75
2021/12/21 08:33:18;;;;;;;41.27;22.47;;;0.00;99.90;;;;;;5073480;28;20174;-75
2021/12/21 08:35:44;;;;;;;44.80;23.73;;;0.00;99.90;;;;;;5073208;28;20174;-76
2021/12/21 08:38:14;;;;;;;43.27;21.20;;;0.20;99.90;;;;;;5073722;28;20168;-75
2021/12/21 08:40:40;;;;;;;39.17;18.70;;;0.90;99.90;;;;;;5073678;28;20163;-75
2021/12/21 08:43:09;;;;;;;36.90;19.30;;;1.70;99.90;;;;;;5073317;28;20329;-75
2021/12/21 08:45:37;;;;;;;34.73;16.93;;;2.70;99.90;;;;;;5073819;28;20169;-75
2021/12/21 08:48:04;;;;;;;33.00;18.27;;;3.40;99.90;;;;;;5072959;28;20219;-74
2021/12/21 08:50:30;;;;;;;33.60;16.97;;;3.90;99.90;;;;;;5072839;28;20211;-74
2021/12/21 08:52:57;;;;;;;36.20;17.43;;;4.70;99.90;;;;;;5072894;28;20193;-73
2021/12/21 08:55:22;;;;;;;30.77;18.00;;;5.10;99.90;;;;;;5072552;28;20283;-74
2021/12/21 08:57:51;;;;;;;31.07;17.20;;;5.70;99.90;;;;;;5073151;28;20287;-74
2021/12/21 09:00:17;;;;;;;31.53;16.13;;;6.50;99.90;;;;;;5073354;28;20256;-74
2021/12/21 09:02:43;;;;;;;33.27;17.47;;;7.50;99.90;;;;;;5072894;28;20714;-74
2021/12/21 09:05:12;;;;;;;34.47;17.43;;;7.90;99.90;;;;;;5072881;28;20169;-74
2021/12/21 09:07:39;;;;;;;35.43;17.63;;;8.80;99.90;;;;;;5072720;28;20165;-74
2021/12/21 09:10:06;;;;;;;28.57;17.03;;;9.40;97.10;;;;;;5073028;28;20501;-73
2021/12/21 09:12:33;;;;;;;23.10;15.83;;;10.30;94.20;;;;;;5072797;28;20172;-75
2021/12/21 09:14:58;;;;;;;36.53;18.30;;;10.30;92.50;;;;;;5072940;28;20639;-73
2021/12/21 09:17:24;;;;;;;24.50;14.80;;;10.00;91.90;;;;;;5072805;28;20192;-74
2021/12/21 09:19:50;;;;;;;27.70;17.83;;;9.60;93.10;;;;;;5072711;28;20181;-73
2021/12/21 09:22:16;;;;;;;25.43;15.93;;;9.40;93.60;;;;;;5072970;28;20217;-75
2021/12/21 09:24:41;;;;;;;27.07;16.63;;;9.50;94.30;;;;;;5072571;28;20772;-73
2021/12/21 09:27:07;;;;;;;32.37;16.00;;;9.40;93.90;;;;;;5073125;28;20203;-73
2021/12/21 09:29:33;;;;;;;23.13;14.83;;;9.40;93.40;;;;;;5072556;28;20275;-73
2021/12/21 09:31:58;;;;;;;21.53;13.23;;;9.20;93.70;;;;;;5072668;28;20199;-75
2021/12/21 09:34:24;;;;;;;26.20;13.47;;;9.30;93.80;;;;;;5071702;28;20169;-74
2021/12/21 09:36:52;;;;;;;23.63;13.60;;;9.10;94.10;;;;;;5073058;28;20699;-75
2021/12/21 09:39:18;;;;;;;25.33;13.60;;;9.20;93.90;;;;;;5072650;28;20204;-75
2021/12/21 09:41:45;;;;;;;18.23;12.27;;;9.60;92.90;;;;;;5072088;28;20215;-74
2021/12/21 09:44:11;;;;;;;17.27;11.17;;;9.60;92.50;;;;;;5072838;28;20196;-74
2021/12/21 09:46:36;;;;;;;19.53;13.10;;;9.60;92.30;;;;;;5072185;28;20180;-76
2021/12/21 09:49:03;;;;;;;25.90;12.83;;;9.40;92.50;;;;;;5070987;28;20257;-77
2021/12/21 09:51:28;;;;;;;22.83;13.73;;;9.30;91.90;;;;;;5071186;28;20538;-75
2021/12/21 09:53:56;;;;;;;20.60;12.17;;;9.10;93.20;;;;;;5071656;28;20173;-75
2021/12/21 09:56:22;;;;;;;24.97;14.33;;;8.90;93.20;;;;;;5072439;28;20173;-73
2021/12/21 09:58:50;;;;;;;26.47;13.70;;;8.90;93.90;;;;;;5072103;28;20279;-75
2021/12/21 10:01:21;;;;;;;21.07;12.97;;;8.70;94.10;;;;;;5072223;28;20195;-75
2021/12/21 10:03:47;;;;;;;25.43;15.10;;;8.80;93.40;;;;;;5072194;28;20225;-76
2021/12/21 10:06:12;;;;;;;20.00;13.63;;;9.30;93.10;;;;;;5071856;28;20554;-75
2021/12/21 10:08:39;;;;;;;19.37;12.77;;;9.90;92.50;;;;;;5071944;28;20180;-75
2021/12/21 10:11:07;;;;;;;22.37;12.20;;;10.20;90.80;;;;;;5072528;28;20172;-75
2021/12/21 10:13:36;;;;;;;17.70;12.63;;;10.50;88.00;;;;;;5071364;28;20168;-75
2021/12/21 10:16:05;;;;;;;19.07;11.97;;;10.70;87.30;;;;;;5071913;28;20188;-75
2021/12/21 10:18:41;;;;;;;24.33;14.90;;;10.30;87.80;;;;;;5071979;28;20180;-75
2021/12/21 10:21:10;;;;;;;17.13;11.33;;;10.70;88.20;;;;;;5072091;28;20178;-74
2021/12/21 10:23:39;;;;;;;19.93;13.10;;;9.80;88.30;;;;;;5072108;28;20175;-72
2021/12/21 10:26:10;;;;;;;22.20;14.13;;;9.70;91.60;;;;;;5072194;28;20231;-74
2021/12/21 10:28:40;;;;;;;25.20;13.40;;;9.60;92.30;;;;;;5071837;28;20642;-75
2021/12/21 10:31:12;;;;;;;15.77;10.90;;;9.50;92.50;;;;;;5071465;28;20164;-74
2021/12/21 10:33:43;;;;;;;14.83;10.10;;;9.70;90.70;;;;;;5071972;28;20198;-73
2021/12/21 10:36:15;;;;;;;26.67;14.13;;;9.50;90.20;;;;;;5072107;28;20534;-74
2021/12/21 10:38:52;;;;;;;23.30;12.87;;;9.80;90.80;;;;;;5072591;28;20179;-74
2021/12/21 10:41:17;;;;;;;14.03;8.00;;;10.60;89.50;;;;;;5071578;28;20208;-72
2021/12/21 10:43:54;;;;;;;15.60;9.90;;;9.70;85.20;;;;;;5070026;28;20222;-75
2021/12/21 10:46:21;;;;;;;14.17;8.77;;;9.90;88.50;;;;;;5071609;28;20620;-74
2021/12/21 10:48:49;;;;;;;20.03;12.57;;;10.50;85.50;;;;;;5071940;28;20165;-74
2021/12/21 10:51:15;;;;;;;22.40;14.10;;;10.40;89.10;;;;;;5071670;28;20203;-74
2021/12/21 10:53:47;;;;;;;28.30;14.73;;;10.70;88.20;;;;;;5071855;28;20172;-74
2021/12/21 10:56:17;;;;;;;25.20;15.03;;;10.90;88.50;;;;;;5071983;28;20515;-73
2021/12/21 10:58:44;;;;;;;26.87;13.70;;;11.40;86.80;;;;;;5071800;28;20287;-73
2021/12/21 11:01:17;;;;;;;17.87;12.87;;;11.50;85.20;;;;;;5070274;28;20539;-74
2021/12/21 11:03:54;;;;;;;23.17;12.70;;;11.30;85.80;;;;;;5071928;28;20192;-75
2021/12/21 11:06:26;;;;;;;19.40;11.50;;;11.10;85.90;;;;;;5071801;28;20441;-74
2021/12/21 11:08:54;;;;;;;20.47;10.63;;;10.10;86.80;;;;;;5070557;28;20212;-74
2021/12/21 11:11:32;;;;;;;13.47;8.87;;;9.50;90.60;;;;;;5071485;28;20195;-75
2021/12/21 11:14:21;;;;;;;16.60;8.67;;;9.10;90.10;;;;;;5071291;28;20171;-73
2021/12/21 11:16:50;;;;;;;14.30;8.67;;;9.00;90.70;;;;;;5071415;28;20222;-74
2021/12/21 11:19:18;;;;;;;13.83;7.00;;;9.20;90.50;;;;;;5073688;28;20521;-74
2021/12/21 11:21:45;;;;;;;12.50;7.53;;;8.40;87.50;;;;;;5073260;28;20208;-73
2021/12/21 11:24:16;;;;;;;16.30;9.10;;;7.50;92.50;;;;;;5074196;28;20268;-73
2021/12/21 11:26:47;;;;;;;15.60;11.17;;;8.10;93.30;;;;;;5074323;28;20185;-72
2021/12/21 11:29:16;;;;;;;10.77;7.03;;;8.00;92.20;;;;;;5073364;28;20588;-73
2021/12/21 11:31:44;;;;;;;15.10;7.93;;;7.50;91.30;;;;;;5074790;28;20172;-72
2021/12/21 11:34:17;;;;;;;15.70;7.90;;;7.10;93.50;;;;;;5074828;28;20204;-72
2021/12/21 11:39:33;;;;;;;14.83;8.83;;;7.10;94.30;;;;;;5074964;28;20183;-72
2021/12/21 11:42:01;;;;;;;13.20;8.87;;;7.90;92.70;;;;;;5072881;28;20208;-72
2021/12/21 11:44:51;;;;;;;15.13;8.40;;;8.30;92.90;;;;;;5074461;28;20179;-73
2021/12/21 11:47:24;;;;;;;13.00;8.43;;;8.30;91.40;;;;;;5074982;28;20184;-72
2021/12/21 11:49:55;;;;;;;14.23;7.83;;;7.80;91.60;;;;;;5074056;28;20187;-71
2021/12/21 11:52:23;;;;;;;12.00;7.60;;;8.50;91.50;;;;;;5074471;28;20639;-71
2021/12/21 11:54:53;;;;;;;14.30;7.30;;;7.80;91.60;;;;;;5074596;28;20176;-72
2021/12/21 11:57:33;;;;;;;18.53;6.57;;;7.80;92.00;;;;;;5074283;28;20572;-72
2021/12/21 12:00:26;;;;;;;10.27;7.07;;;8.30;90.80;;;;;;5074120;28;20180;-73
2021/12/21 12:02:53;;;;;;;13.57;7.10;;;7.90;90.90;;;;;;5037422;28;20314;-72
2021/12/21 12:05:23;;;;;;;16.00;7.73;;;7.70;91.60;;;;;;5073838;28;20203;-72
2021/12/21 12:08:01;;;;;;;12.67;7.50;;;7.90;92.20;;;;;;5072691;28;20259;-73
2021/12/21 12:10:27;;;;;;;12.23;7.50;;;7.70;92.90;;;;;;5072495;28;20181;-73
2021/12/21 12:12:56;;;;;;;15.63;8.23;;;8.30;92.60;;;;;;5074027;28;20176;-74
2021/12/21 12:16:08;;;;;;;17.37;8.10;;;8.60;92.00;;;;;;5072551;28;20237;-73
2021/12/21 12:18:42;;;;;;;12.70;7.93;;;8.40;91.00;;;;;;5070401;28;20219;-74
2021/12/21 12:21:11;;;;;;;11.77;8.40;;;8.20;91.70;;;;;;5073987;28;20160;-73
2021/12/21 12:23:50;;;;;;;11.20;7.80;;;7.90;91.00;;;;;;5072917;28;20195;-73
2021/12/21 12:26:34;;;;;;;17.70;7.23;;;7.00;92.70;;;;;;5072962;28;20224;-74
2021/12/21 12:29:19;;;;;;;7.80;6.20;;;7.00;94.70;;;;;;5072858;28;20188;-73
2021/12/21 12:31:58;;;;;;;14.77;9.87;;;6.30;94.60;;;;;;5073239;28;20180;-73
2021/12/21 12:34:28;;;;;;;14.03;8.70;;;5.90;95.30;;;;;;5073536;28;20600;-73
2021/12/21 12:36:55;;;;;;;13.30;8.20;;;5.60;96.50;;;;;;5056358;28;20169;-72
2021/12/21 12:39:34;;;;;;;12.03;7.00;;;5.70;96.60;;;;;;5073944;28;20169;-73
2021/12/21 12:42:25;;;;;;;12.70;6.53;;;5.70;96.50;;;;;;5072646;28;20219;-73
2021/12/21 12:45:03;;;;;;;11.87;7.13;;;5.50;96.00;;;;;;5073161;28;20528;-73
2021/12/21 12:47:28;;;;;;;10.37;6.20;;;5.30;96.80;;;;;;5073644;28;20636;-73
2021/12/21 12:49:55;;;;;;;9.87;6.97;;;5.10;96.40;;;;;;5073081;28;20180;-74
2021/12/21 12:52:31;;;;;;;10.70;6.43;;;5.10;97.40;;;;;;5073088;28;20169;-73
2021/12/21 12:55:13;;;;;;;15.50;6.20;;;5.10;97.50;;;;;;5072976;28;20171;-73
2021/12/21 12:57:48;;;;;;;13.00;6.57;;;5.10;97.30;;;;;;5072015;28;20211;-73
2021/12/21 13:00:30;;;;;;;11.33;6.83;;;5.10;97.40;;;;;;5072997;28;20179;-72
2021/12/21 13:03:14;;;;;;;11.10;6.03;;;4.90;97.30;;;;;;5073590;28;20204;-74
2021/12/21 13:05:52;;;;;;;15.10;6.60;;;4.90;97.50;;;;;;5072875;28;20164;-74
2021/12/21 13:08:21;;;;;;;9.20;6.80;;;4.90;98.20;;;;;;5072423;28;20229;-74
2021/12/21 13:10:51;;;;;;;8.83;6.60;;;4.90;98.50;;;;;;5072745;28;20221;-75
2021/12/21 13:13:17;;;;;;;12.37;7.13;;;4.90;98.90;;;;;;5072474;28;20581;-74
2021/12/21 13:15:46;;;;;;;10.90;7.00;;;4.90;98.70;;;;;;5072944;28;20624;-74
2021/12/21 13:18:13;;;;;;;14.97;7.80;;;4.80;99.20;;;;;;5072734;28;20193;-74
2021/12/21 13:20:41;;;;;;;11.30;7.20;;;4.80;99.70;;;;;;5073282;28;20214;-73
2021/12/21 13:23:26;;;;;;;10.07;7.00;;;4.80;99.50;;;;;;5071742;28;20747;-73
2021/12/21 13:26:07;;;;;;;16.87;8.10;;;4.70;99.30;;;;;;5071747;28;20310;-74
2021/12/21 13:28:55;;;;;;;14.20;7.37;;;4.70;99.70;;;;;;5071999;28;20177;-74
2021/12/21 13:31:23;;;;;;;20.90;9.67;;;4.60;99.30;;;;;;5072374;28;20574;-73
2021/12/21 13:33:52;;;;;;;24.70;12.00;;;4.60;99.90;;;;;;5072652;28;20177;-73
2021/12/21 13:36:18;;;;;;;20.70;10.00;;;4.60;99.90;;;;;;5072054;28;20632;-73
2021/12/21 13:38:43;;;;;;;11.57;6.93;;;4.60;99.90;;;;;;5072719;28;20260;-73
2021/12/21 13:41:16;;;;;;;15.37;7.50;;;4.70;99.60;;;;;;5069769;28;20699;-73
2021/12/21 13:44:00;;;;;;;10.10;6.57;;;4.60;99.50;;;;;;5071995;28;20200;-73
2021/12/21 13:46:34;;;;;;;13.33;8.53;;;4.50;98.70;;;;;;5072603;28;20179;-73
2021/12/21 13:48:59;;;;;;;12.20;7.60;;;4.60;99.30;;;;;;5071987;28;20180;-72
2021/12/21 13:51:25;;;;;;;12.37;7.17;;;4.50;99.00;;;;;;5071762;28;20169;-74